createdAt,value
2022-08-30T00:01:32.896Z,99058.28
2022-08-30T00:04:02.034Z,99055.00
2022-08-30T00:06:30.453Z,99056.41
2022-08-30T00:08:57.899Z,99056.00
2022-08-30T00:11:28.171Z,99060.84
2022-08-30T00:13:58.084Z,99061.09
2022-08-30T00:16:26.815Z,99064.09
2022-08-30T00:18:54.878Z,99057.25
2022-08-30T00:21:23.365Z,99061.13
2022-08-30T00:23:50.776Z,99057.81
2022-08-30T00:26:17.649Z,99063.28
2022-08-30T00:28:44.715Z,99065.22
2022-08-30T00:31:14.933Z,99066.38
2022-08-30T00:33:43.124Z,99062.34
2022-08-30T00:36:09.947Z,99059.16
2022-08-30T00:38:36.959Z,99066.53
2022-08-30T00:41:03.961Z,99061.72
2022-08-30T00:43:36.695Z,99048.47
2022-08-30T00:46:08.552Z,99052.34
2022-08-30T00:48:41.005Z,99060.34
2022-08-30T00:51:12.632Z,99062.19
2022-08-30T00:53:45.061Z,99063.03
2022-08-30T00:56:14.219Z,99069.31
2022-08-30T00:58:48.850Z,99067.00
2022-08-30T01:01:17.236Z,99061.09
2022-08-30T01:03:45.761Z,99067.81
2022-08-30T01:06:17.594Z,99065.47
2022-08-30T01:08:47.333Z,99059.38
2022-08-30T01:11:20.196Z,99062.03
2022-08-30T01:13:51.838Z,99059.25
2022-08-30T01:16:19.375Z,99066.31
2022-08-30T01:18:48.901Z,99061.72
2022-08-30T01:21:36.839Z,99056.50
2022-08-30T01:24:07.497Z,99060.13
2022-08-30T01:26:36.986Z,99069.00
2022-08-30T01:29:13.313Z,99061.09
2022-08-30T01:31:40.408Z,99070.06
2022-08-30T01:34:08.483Z,99062.28
2022-08-30T01:36:44.777Z,99066.66
2022-08-30T01:39:15.892Z,99059.63
2022-08-30T01:41:43.628Z,99059.72
2022-08-30T01:44:13.077Z,99059.72
2022-08-30T01:46:47.589Z,99063.97
2022-08-30T01:49:27.480Z,99061.31
2022-08-30T01:52:01.108Z,99056.94
2022-08-30T01:54:33.248Z,99052.53
2022-08-30T01:57:09.917Z,99053.38
2022-08-30T01:59:39.286Z,99051.34
2022-08-30T02:02:07.443Z,99051.16
2022-08-30T02:04:36.708Z,99054.56
2022-08-30T02:07:05.287Z,99059.91
2022-08-30T02:09:32.525Z,99050.94
2022-08-30T02:11:59.519Z,99055.97
2022-08-30T02:14:27.567Z,99054.13
2022-08-30T02:16:54.823Z,99054.88
2022-08-30T02:19:21.881Z,99063.00
2022-08-30T02:21:49.790Z,99071.25
2022-08-30T02:24:16.958Z,99059.69
2022-08-30T02:26:43.746Z,99062.56
2022-08-30T02:29:10.652Z,99064.28
2022-08-30T02:31:37.629Z,99061.50
2022-08-30T02:34:04.852Z,99062.69
2022-08-30T02:36:32.438Z,99068.16
2022-08-30T02:38:59.773Z,99066.00
2022-08-30T02:41:26.630Z,99065.13
2022-08-30T02:43:58.392Z,99063.25
2022-08-30T02:46:25.588Z,99065.03
2022-08-30T02:48:52.437Z,99054.44
2022-08-30T02:51:19.770Z,99051.16
2022-08-30T02:53:46.890Z,99053.91
2022-08-30T02:56:14.679Z,99055.75
2022-08-30T02:58:43.683Z,99049.66
2022-08-30T03:01:14.475Z,99042.06
2022-08-30T03:03:44.300Z,99058.09
2022-08-30T03:06:11.833Z,99060.78
2022-08-30T03:08:38.929Z,99061.84
2022-08-30T03:11:06.436Z,99060.13
2022-08-30T03:13:33.898Z,99065.56
2022-08-30T03:16:00.800Z,99067.41
2022-08-30T03:18:28.390Z,99068.25
2022-08-30T03:20:55.553Z,99071.03
2022-08-30T03:23:24.166Z,99070.19
2022-08-30T03:25:53.482Z,99059.69
2022-08-30T03:28:20.729Z,99060.66
2022-08-30T03:30:48.068Z,99064.41
2022-08-30T03:33:15.651Z,99066.22
2022-08-30T03:35:42.860Z,99064.59
2022-08-30T03:38:09.742Z,99061.94
2022-08-30T03:40:36.743Z,99061.00
2022-08-30T03:43:05.413Z,99063.66
2022-08-30T03:45:32.458Z,99064.59
2022-08-30T03:47:59.682Z,99049.00
2022-08-30T03:50:26.833Z,99050.81
2022-08-30T03:52:53.675Z,99050.72
2022-08-30T03:55:21.007Z,99058.53
2022-08-30T03:57:48.016Z,99052.34
2022-08-30T04:00:17.278Z,99047.00
2022-08-30T04:02:44.109Z,99050.63
2022-08-30T04:05:12.797Z,99051.47
2022-08-30T04:07:41.608Z,99055.97
2022-08-30T04:10:10.302Z,99057.16
2022-08-30T04:12:38.572Z,99059.16
2022-08-30T04:15:06.557Z,99054.88
2022-08-30T04:17:33.502Z,99048.91
2022-08-30T04:20:00.627Z,99050.69
2022-08-30T04:22:27.653Z,99049.75
2022-08-30T04:24:54.528Z,99057.56
2022-08-30T04:27:21.564Z,99062.91
2022-08-30T04:29:48.718Z,99067.41
2022-08-30T04:32:16.848Z,99065.56
2022-08-30T04:34:43.914Z,99070.16
2022-08-30T04:37:10.878Z,99073.03
2022-08-30T04:39:37.821Z,99078.78
2022-08-30T04:42:04.937Z,99066.81
2022-08-30T04:44:32.945Z,99075.03
2022-08-30T04:47:00.891Z,99075.13
2022-08-30T04:49:28.094Z,99074.09
2022-08-30T04:51:55.837Z,99077.50
2022-08-30T04:54:22.826Z,99086.34
2022-08-30T04:56:49.806Z,99081.09
2022-08-30T04:59:16.885Z,99088.38
2022-08-30T05:01:44.773Z,99085.69
2022-08-30T05:04:14.867Z,99095.53
2022-08-30T05:06:42.835Z,99101.72
2022-08-30T05:09:09.854Z,99108.66
2022-08-30T05:11:38.226Z,99110.47
2022-08-30T05:14:06.061Z,99114.09
2022-08-30T05:16:32.941Z,99115.81
2022-08-30T05:19:00.233Z,99119.25
2022-08-30T05:21:29.146Z,99112.09
2022-08-30T05:24:01.206Z,99115.50
2022-08-30T05:26:33.334Z,99112.63
2022-08-30T05:29:01.377Z,99112.34
2022-08-30T05:31:34.413Z,99113.28
2022-08-30T05:34:03.285Z,99112.34
2022-08-30T05:36:33.537Z,99114.91
2022-08-30T05:39:00.758Z,99112.97
2022-08-30T05:41:28.752Z,99109.22
2022-08-30T05:43:59.167Z,99117.03
2022-08-30T05:49:08.048Z,99112.97
2022-08-30T05:51:43.485Z,99122.50
2022-08-30T05:54:14.483Z,99124.00
2022-08-30T05:56:45.251Z,99124.53
2022-08-30T05:59:13.997Z,99125.94
2022-08-30T06:01:46.998Z,99126.69
2022-08-30T06:04:15.172Z,99126.06
2022-08-30T06:06:44.311Z,99118.78
2022-08-30T06:09:14.003Z,99130.94
2022-08-30T06:11:43.952Z,99123.91
2022-08-30T06:14:11.560Z,99122.09
2022-08-30T06:16:46.090Z,99128.28
2022-08-30T06:19:16.731Z,99122.94
2022-08-30T06:21:48.516Z,99118.47
2022-08-30T06:24:16.420Z,99113.78
2022-08-30T06:26:47.170Z,99115.16
2022-08-30T06:29:18.932Z,99115.59
2022-08-30T06:31:46.393Z,99119.19
2022-08-30T06:34:14.148Z,99126.28
2022-08-30T06:36:42.752Z,99125.00
2022-08-30T06:39:10.811Z,99122.75
2022-08-30T06:41:41.561Z,99115.47
2022-08-30T06:44:09.157Z,99118.78
2022-08-30T06:46:38.941Z,99111.13
2022-08-30T06:49:11.836Z,99125.97
2022-08-30T06:51:40.193Z,99125.66
2022-08-30T06:54:11.961Z,99132.81
2022-08-30T06:56:48.724Z,99138.69
2022-08-30T06:59:25.955Z,99129.47
2022-08-30T07:01:55.395Z,99129.28
2022-08-30T07:04:22.347Z,99128.22
2022-08-30T07:06:49.298Z,99128.75
2022-08-30T07:09:16.814Z,99129.47
2022-08-30T07:11:44.754Z,99129.25
2022-08-30T07:14:11.867Z,99138.22
2022-08-30T07:16:39.288Z,99136.72
2022-08-30T07:19:06.885Z,99133.72
2022-08-30T07:21:43.775Z,99130.47
2022-08-30T07:24:13.574Z,99139.72
2022-08-30T07:26:47.323Z,99142.09
2022-08-30T07:29:16.116Z,99139.06
2022-08-30T07:31:44.693Z,99141.88
2022-08-30T07:34:12.164Z,99142.41
2022-08-30T07:36:40.142Z,99139.53
2022-08-30T07:39:08.227Z,99135.53
2022-08-30T07:41:39.027Z,99138.09
2022-08-30T07:44:10.116Z,99136.78
2022-08-30T07:46:39.442Z,99137.16
2022-08-30T07:49:11.104Z,99132.09
2022-08-30T07:51:41.176Z,99130.91
2022-08-30T07:54:08.742Z,99123.63
2022-08-30T07:56:36.036Z,99139.47
2022-08-30T07:59:03.518Z,99142.03
2022-08-30T08:01:31.325Z,99143.72
2022-08-30T08:03:58.440Z,99144.56
2022-08-30T08:06:25.744Z,99150.56
2022-08-30T08:08:53.778Z,99147.00
2022-08-30T08:11:28.457Z,99143.72
2022-08-30T08:13:58.850Z,99154.66
2022-08-30T08:16:29.090Z,99152.72
2022-08-30T08:18:56.495Z,99154.53
2022-08-30T08:21:25.898Z,99160.63
2022-08-30T08:23:53.461Z,99157.94
2022-08-30T08:26:24.288Z,99164.63
2022-08-30T08:28:53.583Z,99157.69
2022-08-30T08:31:33.291Z,99148.66
2022-08-30T08:34:06.216Z,99151.13
2022-08-30T08:36:36.271Z,99163.66
2022-08-30T08:39:07.744Z,99160.75
2022-08-30T08:42:15.287Z,99157.94
2022-08-30T08:45:10.147Z,99156.88
2022-08-30T08:47:59.253Z,99167.97
2022-08-30T08:50:32.020Z,99168.50
2022-08-30T08:53:49.396Z,99170.31
2022-08-30T08:56:19.756Z,99165.09
2022-08-30T08:58:52.124Z,99163.06
2022-08-30T09:01:24.119Z,99165.25
2022-08-30T09:03:52.086Z,99166.38
2022-08-30T09:06:45.275Z,99160.47
2022-08-30T09:09:13.631Z,99157.31
2022-08-30T09:11:44.511Z,99151.59
2022-08-30T09:14:44.205Z,99146.47
2022-08-30T09:17:18.102Z,99142.59
2022-08-30T09:19:46.593Z,99141.28
2022-08-30T09:22:46.699Z,99147.00
2022-08-30T09:25:13.728Z,99139.44
2022-08-30T09:27:47.545Z,99142.59
2022-08-30T09:30:27.273Z,99132.84
2022-08-30T09:33:03.688Z,99133.34
2022-08-30T09:35:50.495Z,99129.69
2022-08-30T09:38:29.439Z,99140.28
2022-08-30T09:41:00.945Z,99137.50
2022-08-30T09:43:33.992Z,99135.66
2022-08-30T09:46:01.061Z,99130.53
2022-08-30T09:48:44.552Z,99120.88
2022-08-30T09:51:11.670Z,99125.28
2022-08-30T09:57:13.176Z,99125.28
2022-08-30T09:59:54.896Z,99130.41
2022-08-30T10:02:47.883Z,99131.38
2022-08-30T10:06:01.933Z,99124.91
2022-08-30T10:08:51.299Z,99126.47
2022-08-30T10:11:42.272Z,99121.84
2022-08-30T10:14:18.340Z,99118.50
2022-08-30T10:17:23.704Z,99115.72
2022-08-30T10:20:19.603Z,99120.84
2022-08-30T10:23:12.663Z,99122.25
2022-08-30T10:25:51.476Z,99117.03
2022-08-30T10:28:36.731Z,99123.75
2022-08-30T10:31:29.460Z,99119.56
2022-08-30T10:34:10.160Z,99115.25
2022-08-30T10:36:46.910Z,99115.13
2022-08-30T10:39:32.860Z,99109.38
2022-08-30T10:42:30.667Z,99104.72
2022-08-30T10:45:13.498Z,99105.03
2022-08-30T10:47:53.907Z,99107.38
2022-08-30T10:50:29.702Z,99105.16
2022-08-30T10:53:09.864Z,99099.78
2022-08-30T10:55:50.011Z,99099.25
2022-08-30T10:58:18.681Z,99095.72
2022-08-30T11:01:12.662Z,99102.25
2022-08-30T11:04:00.829Z,99092.41
2022-08-30T11:07:00.321Z,99099.97
2022-08-30T11:09:47.145Z,99092.53
2022-08-30T11:12:17.118Z,99097.41
2022-08-30T11:14:46.849Z,99103.38
2022-08-30T11:17:58.741Z,99099.91
2022-08-30T11:20:42.435Z,99100.25
2022-08-30T11:23:18.715Z,99103.06
2022-08-30T11:26:04.110Z,99101.78
2022-08-30T11:28:37.183Z,99094.47
2022-08-30T11:31:30.965Z,99095.44
2022-08-30T11:34:01.084Z,99094.16
2022-08-30T11:36:45.978Z,99087.81
2022-08-30T11:39:49.095Z,99083.84
2022-08-30T11:42:43.410Z,99092.91
2022-08-30T11:45:22.315Z,99097.16
2022-08-30T11:48:04.575Z,99098.16
2022-08-30T11:50:59.908Z,99099.97
2022-08-30T11:54:02.942Z,99094.19
2022-08-30T11:57:00.845Z,99085.06
2022-08-30T11:59:39.301Z,99088.31
2022-08-30T12:02:08.307Z,99083.22
2022-08-30T12:04:45.816Z,99084.78
2022-08-30T12:08:01.557Z,99079.97
2022-08-30T12:10:43.962Z,99077.41
2022-08-30T12:13:39.457Z,99081.97
2022-08-30T12:16:11.650Z,99082.81
2022-08-30T12:18:50.683Z,99085.63
2022-08-30T12:21:21.342Z,99081.25
2022-08-30T12:23:54.616Z,99068.78
2022-08-30T12:26:25.129Z,99073.19
2022-08-30T12:29:05.958Z,99070.31
2022-08-30T12:31:40.762Z,99064.66
2022-08-30T12:34:07.739Z,99059.44
2022-08-30T12:36:40.512Z,99055.38
2022-08-30T12:39:22.978Z,99053.25
2022-08-30T12:41:50.844Z,99049.28
2022-08-30T12:44:28.859Z,99050.69
2022-08-30T12:47:05.606Z,99040.78
2022-08-30T12:49:38.019Z,99042.91
2022-08-30T12:52:31.684Z,99037.50
2022-08-30T12:55:21.993Z,99035.81
2022-08-30T12:58:09.428Z,99028.69
2022-08-30T13:00:42.589Z,99033.25
2022-08-30T13:03:35.106Z,99032.53
2022-08-30T13:06:03.561Z,99031.72
2022-08-30T13:08:45.885Z,99039.47
2022-08-30T13:11:29.619Z,99028.56
2022-08-30T13:14:44.589Z,99018.66
2022-08-30T13:17:28.946Z,99020.78
2022-08-30T13:20:17.250Z,99027.16
2022-08-30T13:23:08.780Z,99021.03
2022-08-30T13:25:39.256Z,99014.13
2022-08-30T13:28:07.822Z,99009.44
2022-08-30T13:30:35.819Z,99006.88
2022-08-30T13:33:03.175Z,99003.91
2022-08-30T13:35:31.441Z,99007.28
2022-08-30T13:38:01.991Z,99001.75
2022-08-30T13:40:29.097Z,98994.66
2022-08-30T13:42:56.809Z,98991.97
2022-08-30T13:45:41.608Z,98998.09
2022-08-30T13:48:11.440Z,98995.38
2022-08-30T13:50:39.492Z,98997.06
2022-08-30T13:53:09.161Z,98999.06
2022-08-30T13:55:39.955Z,98996.09
2022-08-30T13:58:08.535Z,98989.00
2022-08-30T14:00:38.036Z,98990.97
2022-08-30T14:03:05.441Z,98984.28
2022-08-30T14:06:09.999Z,98980.75
2022-08-30T14:08:48.279Z,98977.09
2022-08-30T14:11:20.887Z,98979.63
2022-08-30T14:16:44.537Z,98976.38
2022-08-30T14:19:14.970Z,98969.00
2022-08-30T14:21:46.616Z,98977.63
2022-08-30T14:24:20.138Z,98965.69
2022-08-30T14:26:52.297Z,98962.03
2022-08-30T14:29:28.896Z,98967.00
2022-08-30T14:31:56.936Z,98958.44
2022-08-30T14:34:28.599Z,98957.47
2022-08-30T14:36:56.393Z,98956.63
2022-08-30T14:39:23.345Z,98956.47
2022-08-30T14:41:55.352Z,98953.63
2022-08-30T14:44:24.763Z,98949.09
2022-08-30T14:46:52.243Z,98949.09
2022-08-30T14:49:21.748Z,98945.69
2022-08-30T14:51:50.602Z,98949.09
2022-08-30T14:54:25.810Z,98945.22
2022-08-30T14:56:53.946Z,98953.16
2022-08-30T14:59:22.222Z,98950.31
2022-08-30T15:01:49.075Z,98945.81
2022-08-30T15:04:17.324Z,98947.47
2022-08-30T15:06:48.350Z,98947.19
2022-08-30T15:09:23.195Z,98940.81
2022-08-30T15:11:54.969Z,98934.69
2022-08-30T15:14:22.552Z,98931.88
2022-08-30T15:16:49.957Z,98933.28
2022-08-30T15:19:18.101Z,98931.44
2022-08-30T15:21:48.406Z,98929.44
2022-08-30T15:24:29.347Z,98927.16
2022-08-30T15:27:00.799Z,98924.47
2022-08-30T15:29:30.438Z,98923.91
2022-08-30T15:32:00.722Z,98932.72
2022-08-30T15:34:28.028Z,98928.03
2022-08-30T15:36:56.461Z,98924.31
2022-08-30T15:39:26.916Z,98927.59
2022-08-30T15:41:59.797Z,98923.88
2022-08-30T15:44:31.265Z,98920.34
2022-08-30T15:46:58.645Z,98917.41
2022-08-30T15:49:25.731Z,98916.22
2022-08-30T15:51:54.202Z,98908.97
2022-08-30T15:54:23.850Z,98914.56
2022-08-30T15:56:59.050Z,98915.38
2022-08-30T15:59:29.927Z,98914.22
2022-08-30T16:01:57.839Z,98910.41
2022-08-30T16:04:25.040Z,98912.94
2022-08-30T16:06:53.437Z,98912.94
2022-08-30T16:09:22.292Z,98906.84
2022-08-30T16:11:50.365Z,98909.88
2022-08-30T16:14:17.719Z,98909.63
2022-08-30T16:16:48.845Z,98913.03
2022-08-30T16:19:16.674Z,98914.69
2022-08-30T16:21:44.201Z,98913.94
2022-08-30T16:24:13.585Z,98912.97
2022-08-30T16:26:43.066Z,98907.50
2022-08-30T16:29:12.591Z,98910.91
2022-08-30T16:31:44.313Z,98914.78
2022-08-30T16:34:14.760Z,98913.28
2022-08-30T16:36:41.692Z,98914.81
2022-08-30T16:39:09.924Z,98915.19
2022-08-30T16:41:37.881Z,98907.47
2022-08-30T16:44:05.769Z,98904.97
2022-08-30T16:46:34.450Z,98910.44
2022-08-30T16:49:02.475Z,98904.09
2022-08-30T16:51:33.229Z,98902.00
2022-08-30T16:54:07.786Z,98904.72
2022-08-30T16:56:37.093Z,98904.22
2022-08-30T16:59:10.813Z,98908.25
2022-08-30T17:01:42.270Z,98904.31
2022-08-30T17:04:11.468Z,98893.97
2022-08-30T17:06:41.194Z,98904.63
2022-08-30T17:09:09.888Z,98898.97
2022-08-30T17:11:40.210Z,98898.56
2022-08-30T17:14:08.344Z,98903.56
2022-08-30T17:16:37.516Z,98905.84
2022-08-30T17:19:07.193Z,98902.75
2022-08-30T17:21:34.801Z,98906.75
2022-08-30T17:24:03.759Z,98913.41
2022-08-30T17:26:34.413Z,98910.84
2022-08-30T17:29:02.079Z,98909.31
2022-08-30T17:31:31.076Z,98910.88
2022-08-30T17:34:04.105Z,98913.16
2022-08-30T17:36:36.494Z,98909.22
2022-08-30T17:39:11.075Z,98917.44
2022-08-30T17:41:45.406Z,98913.34
2022-08-30T17:44:25.808Z,98915.34
2022-08-30T17:46:55.602Z,98917.28
2022-08-30T17:49:25.084Z,98921.25
2022-08-30T17:51:56.325Z,98921.53
2022-08-30T17:54:25.916Z,98921.81
2022-08-30T17:56:54.151Z,98924.66
2022-08-30T17:59:25.032Z,98931.19
2022-08-30T18:01:55.376Z,98931.75
2022-08-30T18:04:25.214Z,98941.81
2022-08-30T18:06:55.792Z,98930.63
2022-08-30T18:09:29.405Z,98937.00
2022-08-30T18:11:59.309Z,98931.06
2022-08-30T18:14:27.910Z,98939.28
2022-08-30T18:16:55.100Z,98939.72
2022-08-30T18:19:24.512Z,98942.53
2022-08-30T18:21:53.155Z,98947.34
2022-08-30T18:24:22.212Z,98952.00
2022-08-30T18:26:51.017Z,98958.69
2022-08-30T18:29:25.990Z,98961.78
2022-08-30T18:32:02.802Z,98958.38
2022-08-30T18:34:31.519Z,98963.34
2022-08-30T18:36:58.656Z,98965.47
2022-08-30T18:39:26.350Z,98959.50
2022-08-30T18:41:55.691Z,98963.44
2022-08-30T18:44:28.730Z,98970.06
2022-08-30T18:47:08.536Z,98971.19
2022-08-30T18:49:39.636Z,98970.63
2022-08-30T18:52:16.579Z,98971.03
2022-08-30T18:54:52.693Z,98974.16
2022-08-30T18:57:26.547Z,98978.22
2022-08-30T18:59:55.658Z,98979.75
2022-08-30T19:02:27.511Z,98978.91
2022-08-30T19:04:55.166Z,98974.78
2022-08-30T19:10:13.932Z,98984.50
2022-08-30T19:12:42.004Z,98981.38
2022-08-30T19:15:11.830Z,98977.97
2022-08-30T19:17:44.967Z,98980.09
2022-08-30T19:20:17.035Z,98974.25
2022-08-30T19:23:09.058Z,98978.94
2022-08-30T19:25:31.450Z,98980.03
2022-08-30T19:27:59.235Z,98990.91
2022-08-30T19:30:29.976Z,98983.13
2022-08-30T19:32:58.134Z,98984.13
2022-08-30T19:35:25.676Z,98986.06
2022-08-30T19:37:52.575Z,98987.31
2022-08-30T19:40:23.517Z,98991.84
2022-08-30T19:42:53.518Z,98983.81
2022-08-30T19:45:23.646Z,98994.53
2022-08-30T19:47:57.880Z,98996.47
2022-08-30T19:50:27.040Z,98994.91
2022-08-30T19:52:55.336Z,98996.88
2022-08-30T19:55:30.294Z,99000.41
2022-08-30T19:57:59.787Z,98997.84
2022-08-30T20:00:31.149Z,98994.56
2022-08-30T20:03:00.165Z,98996.44
2022-08-30T20:05:30.598Z,99000.91
2022-08-30T20:08:01.688Z,98998.38
2022-08-30T20:10:29.481Z,98999.38
2022-08-30T20:12:57.324Z,98998.66
2022-08-30T20:15:25.867Z,98999.75
2022-08-30T20:20:40.268Z,98995.78
2022-08-30T20:23:07.403Z,98998.72
2022-08-30T20:24:31.785Z,98977.16
2022-08-30T20:25:36.487Z,99001.91
2022-08-30T20:28:05.455Z,98994.72
2022-08-30T20:30:33.349Z,98993.97
2022-08-30T20:33:07.077Z,98993.53
2022-08-30T20:35:36.572Z,98992.09
2022-08-30T20:38:06.506Z,99000.16
2022-08-30T20:40:38.922Z,98988.44
2022-08-30T20:43:07.858Z,98991.38
2022-08-30T20:45:35.177Z,98990.50
2022-08-30T20:48:03.177Z,98989.06
2022-08-30T20:50:31.027Z,98988.47
2022-08-30T20:52:58.669Z,98987.75
2022-08-30T20:55:25.677Z,98991.66
2022-08-30T20:57:52.903Z,98993.19
2022-08-30T21:00:20.698Z,98990.03
2022-08-30T21:02:48.760Z,98991.75
2022-08-30T21:05:17.614Z,98991.88
2022-08-30T21:07:45.876Z,98991.00
2022-08-30T21:10:13.931Z,98994.69
2022-08-30T21:12:42.797Z,98992.13
2022-08-30T21:15:34.113Z,98996.75
2022-08-30T21:17:58.233Z,98996.09
2022-08-30T21:20:25.134Z,98992.72
2022-08-30T21:22:52.159Z,98993.81
2022-08-30T21:25:19.511Z,98999.19
2022-08-30T21:27:46.300Z,98990.69
2022-08-30T21:30:14.693Z,98987.28
2022-08-30T21:32:41.950Z,98986.41
2022-08-30T21:35:28.392Z,98989.22
2022-08-30T21:37:55.432Z,98989.34
2022-08-30T21:40:22.505Z,98990.44
2022-08-30T21:42:49.453Z,98999.47
2022-08-30T21:45:16.629Z,99006.31
2022-08-30T21:47:43.954Z,99002.66
2022-08-30T21:50:12.045Z,99005.47
2022-08-30T21:52:39.104Z,99008.53
2022-08-30T21:55:06.527Z,99005.25
2022-08-30T21:57:33.558Z,99003.78
2022-08-30T22:00:00.659Z,99006.84
2022-08-30T22:02:29.131Z,99011.47
2022-08-30T22:04:56.105Z,99015.38
2022-08-30T22:07:23.236Z,99012.81
2022-08-30T22:09:50.242Z,99015.63
2022-08-30T22:12:17.559Z,99013.19
2022-08-30T22:14:44.638Z,99017.81
2022-08-30T22:17:12.531Z,99014.53
2022-08-30T22:19:40.036Z,99013.81
2022-08-30T22:22:07.252Z,99006.72
2022-08-30T22:24:34.096Z,99006.13
2022-08-30T22:27:05.120Z,99003.69
2022-08-30T22:29:32.917Z,99003.94
2022-08-30T22:32:00.133Z,98995.88
2022-08-30T22:34:27.185Z,98995.03
2022-08-30T22:36:54.336Z,98995.78
2022-08-30T22:39:21.150Z,98997.38
2022-08-30T22:41:48.095Z,98990.28
2022-08-30T22:44:15.039Z,98993.97
2022-08-30T22:46:42.158Z,98993.97
2022-08-30T22:49:10.839Z,98995.88
2022-08-30T22:51:41.854Z,98987.13
2022-08-30T22:54:10.213Z,98990.19
2022-08-30T22:56:39.471Z,98995.56
2022-08-30T22:59:07.470Z,99000.03
2022-08-30T23:01:43.138Z,99002.59
2022-08-30T23:04:11.849Z,98999.81
2022-08-30T23:06:39.550Z,99000.03
2022-08-30T23:09:07.337Z,99006.59
2022-08-30T23:11:35.084Z,99002.56
2022-08-30T23:14:04.231Z,99006.22
2022-08-30T23:16:32.802Z,99000.03
2022-08-30T23:19:00.600Z,99001.00
2022-08-30T23:21:31.045Z,98990.28
2022-08-30T23:24:17.885Z,98990.28
2022-08-30T23:27:05.138Z,98989.16
2022-08-30T23:29:51.964Z,98985.41
2022-08-30T23:32:38.490Z,98993.09
2022-08-30T23:35:31.479Z,98988.34
2022-08-30T23:38:20.954Z,98984.44
2022-08-30T23:41:06.215Z,98980.19
2022-08-30T23:43:51.685Z,98982.88
2022-08-30T23:46:39.607Z,98974.97
2022-08-30T23:49:25.125Z,98977.63
2022-08-30T23:52:10.410Z,98979.22
2022-08-30T23:54:57.242Z,98976.81
2022-08-30T23:57:45.038Z,98974.25
